Time;durP1;ratioP1;P1;durP2;ratioP2;P2;SDS_P1;SDS_P2;PMS_P1;PMS_P2;Temp;Humidity;BMP_temperature;BMP_pressure;BME280_temperature;BME280_humidity;BME280_pressure;Samples;Min_cycle;Max_cycle;Signal;HPM_P1;HPM_P2
2022/12/31 00:01:08;;;;;;;;;;;;;;;14.35;47.35;100012.34;4989863;27;98304;-65
2022/12/31 00:03:34;;;;;;;;;;;;;;;14.35;47.73;100012.34;4965908;27;99603;-67
2022/12/31 00:05:59;;;;;;;;;;;;;;;14.35;47.46;100007.72;4986250;27;122110;-69
2022/12/31 00:08:25;;;;;;;;;;;;;;;14.35;47.81;100010.44;5000832;27;117118;-64
2022/12/31 00:10:51;;;;;;;;;;;;;;;14.35;47.81;100029.41;4970908;27;132176;-65
2022/12/31 00:13:17;;;;;;;;;;;;;;;14.36;47.70;100027.50;4987641;27;128304;-68
2022/12/31 00:15:43;;;;;;;;;;;;;;;14.37;47.61;100029.09;4987835;27;127746;-68
2022/12/31 00:18:09;;;;;;;;;;;;;;;14.38;47.56;100033.41;4988639;27;97933;-69
2022/12/31 00:20:40;;;;;;;;;;;;;;;14.38;47.60;100028.00;4970080;27;99428;-65
2022/12/31 00:23:07;;;;;;;;;;;;;;;14.39;47.71;100027.69;4973939;27;98027;-69
2022/12/31 00:25:35;;;;;;;;;;;;;;;14.38;47.53;100045.09;4998440;27;97950;-69
2022/12/31 00:28:01;;;;;;;;;;;;;;;14.39;47.66;100033.13;4989039;27;98521;-65
2022/12/31 00:30:27;;;;;;;;;;;;;;;14.39;47.58;100043.97;4966818;27;99969;-69
2022/12/31 00:32:53;;;;;;;;;;;;;;;14.40;47.64;100025.78;4985367;27;128420;-68
2022/12/31 00:35:19;;;;;;;;;;;;;;;14.40;47.50;100034.72;4986788;27;126639;-65
2022/12/31 00:37:45;;;;;;;;;;;;;;;14.41;47.72;100039.03;4991230;27;118800;-68
2022/12/31 00:40:11;;;;;;;;;;;;;;;14.43;47.45;100044.16;4976863;27;128196;-65
2022/12/31 00:42:37;;;;;;;;;;;;;;;14.44;47.36;100049.28;4980737;27;98057;-68
2022/12/31 00:45:03;;;;;;;;;;;;;;;14.44;47.41;100060.13;4976747;27;127022;-69
2022/12/31 00:47:29;;;;;;;;;;;;;;;14.44;47.74;100062.84;4976172;27;113180;-69
2022/12/31 00:49:55;;;;;;;;;;;;;;;14.44;47.77;100062.84;4976116;27;115230;-68
2022/12/31 00:52:20;;;;;;;;;;;;;;;14.46;47.39;100060.66;4986013;27;131462;-65
2022/12/31 00:54:46;;;;;;;;;;;;;;;14.48;47.50;100063.84;4984404;27;98407;-67
2022/12/31 00:57:12;;;;;;;;;;;;;;;14.50;47.64;100074.41;4971045;27;119572;-65
2022/12/31 00:59:38;;;;;;;;;;;;;;;14.51;47.51;100077.94;4971812;27;128200;-65
2022/12/31 01:02:04;;;;;;;;;;;;;;;14.52;47.61;100077.63;5003585;27;125194;-67
2022/12/31 01:04:30;;;;;;;;;;;;;;;14.54;47.74;100094.41;4985471;27;126725;-65
2022/12/31 01:06:56;;;;;;;;;;;;;;;14.55;47.76;100096.00;4986366;27;117996;-70
2022/12/31 01:09:22;;;;;;;;;;;;;;;14.58;47.72;100105.44;4967717;27;124942;-66
2022/12/31 01:11:50;;;;;;;;;;;;;;;14.58;47.69;100100.84;4982116;27;128311;-69
2022/12/31 01:14:17;;;;;;;;;;;;;;;14.61;47.60;100108.34;4989106;27;99170;-69
2022/12/31 01:16:48;;;;;;;;;;;;;;;14.63;47.47;100108.88;4989926;27;97971;-65
2022/12/31 01:19:16;;;;;;;;;;;;;;;14.65;47.94;100108.56;4969376;27;98491;-65
2022/12/31 01:21:43;;;;;;;;;;;;;;;14.67;47.47;100122.63;4985834;27;119928;-68
2022/12/31 01:24:09;;;;;;;;;;;;;;;14.69;47.72;100114.97;5004115;27;106331;-65
2022/12/31 01:26:35;;;;;;;;;;;;;;;14.70;47.38;100111.97;4988253;27;104314;-65
2022/12/31 01:29:01;;;;;;;;;;;;;;;14.73;47.51;100121.41;4973002;27;117326;-65
2022/12/31 01:31:27;;;;;;;;;;;;;;;14.75;47.74;100127.34;4987354;27;118578;-65
2022/12/31 01:33:53;;;;;;;;;;;;;;;14.78;47.43;100132.16;4978190;27;105464;-65
2022/12/31 01:36:21;;;;;;;;;;;;;;;14.79;47.45;100136.47;4986613;27;98258;-65
2022/12/31 01:38:47;;;;;;;;;;;;;;;14.80;47.63;100132.66;4974136;27;98749;-65
2022/12/31 01:41:14;;;;;;;;;;;;;;;14.83;47.54;100136.69;5002991;27;116126;-65
2022/12/31 01:43:47;;;;;;;;;;;;;;;14.85;47.62;100123.59;4985876;27;98340;-68
2022/12/31 01:46:24;;;;;;;;;;;;;;;14.86;47.54;100133.38;4987157;27;113109;-68
2022/12/31 01:48:51;;;;;;;;;;;;;;;14.87;47.47;100124.91;4985574;27;116831;-67
2022/12/31 01:51:17;;;;;;;;;;;;;;;14.89;47.63;100132.75;4971954;27;123201;-65
2022/12/31 01:53:43;;;;;;;;;;;;;;;14.90;47.73;100132.44;4985056;27;127672;-68
2022/12/31 01:56:09;;;;;;;;;;;;;;;14.92;47.70;100135.66;4971198;27;98254;-68
2022/12/31 01:58:38;;;;;;;;;;;;;;;14.92;47.55;100119.38;4999595;27;128055;-65
2022/12/31 02:01:05;;;;;;;;;;;;;;;14.94;47.74;100128.03;5000557;27;99881;-68
2022/12/31 02:03:31;;;;;;;;;;;;;;;14.96;47.39;100146.69;4967275;27;98433;-69
2022/12/31 02:06:03;;;;;;;;;;;;;;;14.97;47.38;100135.56;4985456;27;114881;-65
2022/12/31 02:08:29;;;;;;;;;;;;;;;14.98;47.52;100147.22;5020247;27;98460;-69
2022/12/31 02:10:55;;;;;;;;;;;;;;;14.99;47.75;100146.09;4985461;27;97992;-69
2022/12/31 02:13:21;;;;;;;;;;;;;;;15.02;47.51;100150.13;4969489;27;98153;-66
2022/12/31 02:15:56;;;;;;;;;;;;;;;15.02;47.71;100150.13;4985134;27;110359;-68
2022/12/31 02:18:52;;;;;;;;;;;;;;;15.02;47.83;100150.94;4971788;27;100249;-67
2022/12/31 02:21:39;;;;;;;;;;;;;;;15.04;47.72;100156.84;4982927;27;117023;-65
2022/12/31 02:24:23;;;;;;;;;;;;;;;15.05;47.46;100141.34;4983184;27;104376;-69
2022/12/31 02:27:00;;;;;;;;;;;;;;;15.05;47.54;100127.78;5021806;27;98307;-65
2022/12/31 02:29:50;;;;;;;;;;;;;;;15.07;47.39;100120.94;4986644;27;123906;-65
2022/12/31 02:32:37;;;;;;;;;;;;;;;15.07;47.64;100118.25;5001237;27;100103;-69
2022/12/31 02:35:20;;;;;;;;;;;;;;;15.08;47.80;100124.47;4982469;27;116947;-68
2022/12/31 02:37:47;;;;;;;;;;;;;;;15.09;47.61;100132.31;4984874;27;108095;-65
2022/12/31 02:40:14;;;;;;;;;;;;;;;15.08;47.33;100130.69;4987524;27;98406;-65
2022/12/31 02:42:40;;;;;;;;;;;;;;;15.10;47.60;100123.06;4968093;27;127300;-65
2022/12/31 02:45:06;;;;;;;;;;;;;;;15.10;47.81;100120.34;4986062;27;129266;-66
2022/12/31 02:48:05;;;;;;;;;;;;;;;15.11;47.54;100113.00;4987253;27;98001;-69
2022/12/31 02:50:37;;;;;;;;;;;;;;;15.11;47.54;100102.16;4986232;27;100798;-69
2022/12/31 02:53:30;;;;;;;;;;;;;;;15.13;47.57;100092.59;5002139;27;98938;-65
2022/12/31 02:56:35;;;;;;;;;;;;;;;15.13;47.81;100095.31;5001266;27;107265;-65
2022/12/31 03:02:15;;;;;;;;;;;;;;;15.15;47.83;100111.28;4987962;27;99520;-69
2022/12/31 03:04:42;;;;;;;;;;;;;;;15.15;47.71;100119.44;4987716;27;98724;-65
2022/12/31 03:07:13;;;;;;;;;;;;;;;15.16;47.71;100129.16;4966856;27;103739;-65
2022/12/31 03:09:39;;;;;;;;;;;;;;;15.16;47.63;100127.25;4983345;27;97873;-68
2022/12/31 03:14:51;;;;;;;;;;;;;;;15.18;47.94;100127.75;4987136;27;98060;-68
2022/12/31 03:17:16;;;;;;;;;;;;;;;15.21;47.81;100129.88;5001511;27;106481;-68
2022/12/31 03:22:27;;;;;;;;;;;;;;;15.39;47.78;100128.09;4987519;27;98495;-65
2022/12/31 03:25:31;;;;;;;;;;;;;;;15.47;47.72;100138.22;4971817;27;97922;-66
2022/12/31 03:27:57;;;;;;;;;;;;;;;15.57;47.63;100133.66;4999328;27;99481;-65
2022/12/31 03:30:23;;;;;;;;;;;;;;;15.62;47.71;100137.06;4984903;27;105159;-65
2022/12/31 03:32:49;;;;;;;;;;;;;;;15.67;47.65;100131.53;5001545;27;102537;-69
2022/12/31 03:35:18;;;;;;;;;;;;;;;15.71;47.52;100137.94;4969408;27;98133;-66
2022/12/31 03:37:43;;;;;;;;;;;;;;;15.75;47.77;100140.03;4985803;27;97949;-70
2022/12/31 03:40:10;;;;;;;;;;;;;;;15.78;47.64;100132.09;4966560;27;116935;-70
2022/12/31 03:42:36;;;;;;;;;;;;;;;15.82;47.53;100129.56;4982507;27;98243;-68
2022/12/31 03:45:03;;;;;;;;;;;;;;;15.84;47.67;100128.13;4981879;27;100456;-69
2022/12/31 03:47:29;;;;;;;;;;;;;;;15.86;47.61;100131.34;4985208;27;98129;-69
2022/12/31 03:49:55;;;;;;;;;;;;;;;15.88;47.71;100115.53;4971456;27;117936;-66
2022/12/31 03:52:21;;;;;;;;;;;;;;;15.91;47.62;100112.16;4984736;27;106650;-66
2022/12/31 03:54:46;;;;;;;;;;;;;;;15.93;47.84;100103.72;4966725;27;120881;-66
2022/12/31 03:57:12;;;;;;;;;;;;;;;15.94;47.74;100118.91;4984054;27;126518;-69
2022/12/31 03:59:38;;;;;;;;;;;;;;;15.97;47.68;100114.78;4984279;27;117535;-67
2022/12/31 04:02:04;;;;;;;;;;;;;;;15.97;47.61;100115.56;4968690;27;99767;-68
2022/12/31 04:04:30;;;;;;;;;;;;;;;15.97;47.83;100109.34;4982666;27;128679;-68
2022/12/31 04:06:56;;;;;;;;;;;;;;;15.99;47.83;100109.81;4970916;27;98000;-66
2022/12/31 04:09:22;;;;;;;;;;;;;;;15.99;47.87;100115.25;4998848;27;117520;-68
2022/12/31 04:11:48;;;;;;;;;;;;;;;15.99;47.82;100110.63;4969495;27;116466;-69
2022/12/31 04:14:16;;;;;;;;;;;;;;;15.98;47.82;100108.22;4969366;27;97893;-67
2022/12/31 04:16:42;;;;;;;;;;;;;;;15.99;47.83;100123.41;4977273;27;98515;-69
2022/12/31 04:19:08;;;;;;;;;;;;;;;15.99;47.80;100117.97;4986157;27;97979;-69
2022/12/31 04:21:34;;;;;;;;;;;;;;;15.98;47.76;100119.88;4987149;27;119750;-68
2022/12/31 04:24:01;;;;;;;;;;;;;;;15.99;47.80;100116.06;4987946;27;127855;-65
2022/12/31 04:26:27;;;;;;;;;;;;;;;15.98;47.73;100105.50;4988409;27;98388;-67
2022/12/31 04:28:53;;;;;;;;;;;;;;;15.98;47.79;100102.78;4988007;27;98486;-65
2022/12/31 04:31:19;;;;;;;;;;;;;;;15.96;47.90;100105.81;4967787;27;131540;-69
2022/12/31 04:33:45;;;;;;;;;;;;;;;15.97;47.69;100110.13;4988386;27;127881;-65
2022/12/31 04:36:11;;;;;;;;;;;;;;;15.97;47.80;100103.91;4986604;27;121936;-69
2022/12/31 04:38:37;;;;;;;;;;;;;;;15.95;47.92;100107.75;4968505;27;119921;-65
2022/12/31 04:41:19;;;;;;;;;;;;;;;15.94;47.96;100106.13;4968014;27;123467;-69
2022/12/31 04:43:50;;;;;;;;;;;;;;;15.94;47.86;100108.84;4975173;27;99945;-69
2022/12/31 04:46:17;;;;;;;;;;;;;;;15.94;47.79;100106.13;4987632;27;103599;-65
2022/12/31 04:48:43;;;;;;;;;;;;;;;15.94;47.77;100103.41;4987677;27;98013;-68
2022/12/31 04:51:09;;;;;;;;;;;;;;;15.92;47.89;100094.78;4968725;27;100111;-70
2022/12/31 04:53:35;;;;;;;;;;;;;;;15.93;47.87;100106.44;4971801;27;117353;-65
2022/12/31 04:56:02;;;;;;;;;;;;;;;15.93;47.80;100092.84;4968826;27;99292;-69
2022/12/31 04:58:28;;;;;;;;;;;;;;;15.92;47.96;100094.78;4986647;27;98438;-65
2022/12/31 05:00:54;;;;;;;;;;;;;;;15.92;47.98;100097.50;4986792;27;98857;-68
2022/12/31 05:03:20;;;;;;;;;;;;;;;15.92;47.79;100096.69;4987043;27;98388;-65
2022/12/31 05:05:46;;;;;;;;;;;;;;;15.91;47.79;100095.06;4986137;27;116303;-66
2022/12/31 05:08:12;;;;;;;;;;;;;;;15.92;47.85;100088.53;4985982;27;98466;-63
2022/12/31 05:10:43;;;;;;;;;;;;;;;15.91;47.97;100087.72;4984659;27;111630;-63
2022/12/31 05:13:09;;;;;;;;;;;;;;;15.91;47.91;100081.47;4999176;27;98335;-68
2022/12/31 05:15:35;;;;;;;;;;;;;;;15.91;47.93;100082.28;4969391;27;98057;-63
2022/12/31 05:18:01;;;;;;;;;;;;;;;15.91;47.87;100078.75;4984321;27;117534;-64
2022/12/31 05:20:27;;;;;;;;;;;;;;;15.90;47.89;100080.69;4983997;27;119887;-68
2022/12/31 05:22:52;;;;;;;;;;;;;;;15.90;47.98;100091.53;4985716;27;126360;-63
2022/12/31 05:25:18;;;;;;;;;;;;;;;15.91;47.86;100090.44;4986412;27;127675;-64
2022/12/31 05:27:44;;;;;;;;;;;;;;;15.91;47.76;100093.16;4985316;27;117210;-68
2022/12/31 05:30:10;;;;;;;;;;;;;;;15.91;47.96;100092.34;4986139;27;118124;-67
2022/12/31 05:32:36;;;;;;;;;;;;;;;15.91;47.92;100095.88;4984078;27;98005;-68
2022/12/31 05:35:02;;;;;;;;;;;;;;;15.92;47.97;100091.25;4968030;27;125504;-69
2022/12/31 05:37:28;;;;;;;;;;;;;;;15.93;47.89;100079.25;4982955;27;99526;-64
2022/12/31 05:39:54;;;;;;;;;;;;;;;15.94;47.86;100083.56;4987421;27;98680;-64
2022/12/31 05:42:21;;;;;;;;;;;;;;;15.95;47.81;100090.59;4985666;27;123960;-64
2022/12/31 05:44:47;;;;;;;;;;;;;;;15.95;47.90;100087.88;4970973;27;113690;-64
2022/12/31 05:47:13;;;;;;;;;;;;;;;15.96;47.94;100103.09;4969731;27;109788;-64
2022/12/31 05:49:39;;;;;;;;;;;;;;;15.96;47.62;100092.22;4968127;27;104860;-67
2022/12/31 05:52:05;;;;;;;;;;;;;;;15.95;47.91;100088.72;4968545;27;127617;-64
2022/12/31 05:54:31;;;;;;;;;;;;;;;15.98;47.95;100098.16;5002348;27;98272;-67
2022/12/31 05:56:57;;;;;;;;;;;;;;;15.99;48.01;100091.59;4969889;27;98261;-65
2022/12/31 05:59:23;;;;;;;;;;;;;;;15.99;47.95;100086.16;4984447;27;120114;-68
2022/12/31 06:01:49;;;;;;;;;;;;;;;16.01;47.80;100080.41;4969927;27;100192;-69
2022/12/31 06:04:15;;;;;;;;;;;;;;;16.01;47.76;100083.94;4985555;27;126600;-68
2022/12/31 06:06:41;;;;;;;;;;;;;;;16.02;47.87;100084.72;4984438;27;97936;-69
2022/12/31 06:09:07;;;;;;;;;;;;;;;16.02;48.09;100090.16;4966784;27;113471;-69
2022/12/31 06:11:33;;;;;;;;;;;;;;;16.04;47.79;100094.19;4968522;27;128625;-65
2022/12/31 06:13:59;;;;;;;;;;;;;;;16.04;47.95;100091.47;4985525;27;111994;-66
2022/12/31 06:16:25;;;;;;;;;;;;;;;16.05;48.02;100109.38;4982527;27;118916;-65
2022/12/31 06:18:51;;;;;;;;;;;;;;;16.06;47.81;100099.31;4981256;27;98648;-69
2022/12/31 06:21:17;;;;;;;;;;;;;;;16.06;47.90;100102.03;4981516;27;99116;-68
2022/12/31 06:23:43;;;;;;;;;;;;;;;16.05;47.86;100101.22;4965334;27;98299;-65
2022/12/31 06:26:09;;;;;;;;;;;;;;;16.06;47.82;100113.69;4964811;27;111369;-69
2022/12/31 06:28:35;;;;;;;;;;;;;;;16.06;47.92;100113.69;4996882;27;100133;-68
2022/12/31 06:31:02;;;;;;;;;;;;;;;16.06;47.84;100110.97;4982131;27;99588;-65
2022/12/31 06:33:28;;;;;;;;;;;;;;;16.07;47.87;100122.66;4980227;27;98058;-65
2022/12/31 06:35:59;;;;;;;;;;;;;;;16.06;47.68;100116.41;4964950;27;111205;-69
2022/12/31 06:38:25;;;;;;;;;;;;;;;16.07;47.87;100111.78;4980004;27;119428;-68
2022/12/31 06:40:51;;;;;;;;;;;;;;;16.07;47.79;100109.88;4981828;27;99846;-66
2022/12/31 06:43:17;;;;;;;;;;;;;;;16.07;47.96;100096.28;4995863;27;98212;-68
2022/12/31 06:45:43;;;;;;;;;;;;;;;16.09;48.01;100090.53;4963734;27;119696;-65
2022/12/31 06:48:09;;;;;;;;;;;;;;;16.10;47.81;100075.81;4981333;27;129767;-69
2022/12/31 06:50:35;;;;;;;;;;;;;;;16.11;47.76;100085.56;4964834;27;110078;-68
2022/12/31 06:53:01;;;;;;;;;;;;;;;16.10;47.95;100090.22;4963577;27;126083;-69
2022/12/31 06:55:27;;;;;;;;;;;;;;;16.11;48.04;100086.41;4978347;27;117024;-69
2022/12/31 06:57:53;;;;;;;;;;;;;;;16.13;47.87;100077.91;4976399;27;125364;-65
2022/12/31 07:00:20;;;;;;;;;;;;;;;16.13;47.90;100100.47;4972487;27;98707;-68
2022/12/31 07:03:04;;;;;;;;;;;;;;;16.15;47.84;100109.13;4969923;27;99040;-70
2022/12/31 07:05:50;;;;;;;;;;;;;;;16.16;47.88;100121.59;4995669;27;98924;-70
2022/12/31 07:08:29;;;;;;;;;;;;;;;16.17;47.84;100127.84;4982310;27;120590;-68
2022/12/31 07:11:15;;;;;;;;;;;;;;;16.19;47.94;100110.09;4995914;27;98781;-65
2022/12/31 07:14:08;;;;;;;;;;;;;;;16.20;47.81;100113.63;4998025;27;97868;-69
2022/12/31 07:16:51;;;;;;;;;;;;;;;16.23;47.93;100117.59;4964761;27;113065;-69
2022/12/31 07:19:36;;;;;;;;;;;;;;;16.25;48.03;100123.56;4994374;27;117744;-65
2022/12/31 07:22:02;;;;;;;;;;;;;;;16.27;47.91;100124.03;5000505;27;98339;-69
2022/12/31 07:24:28;;;;;;;;;;;;;;;16.28;47.90;100118.28;4979056;27;103662;-65
2022/12/31 07:27:29;;;;;;;;;;;;;;;16.31;47.96;100119.56;4983814;27;109243;-65
2022/12/31 07:30:10;;;;;;;;;;;;;;;16.34;47.83;100121.66;4964018;27;122205;-65
2022/12/31 07:33:01;;;;;;;;;;;;;;;16.35;47.87;100105.03;4976162;27;120078;-65
2022/12/31 07:35:52;;;;;;;;;;;;;;;16.40;47.85;100107.63;4979498;27;127144;-69
2022/12/31 07:38:39;;;;;;;;;;;;;;;16.44;47.79;100103.16;4999261;27;98093;-65
2022/12/31 07:41:19;;;;;;;;;;;;;;;16.48;47.75;100108.75;4983817;27;99275;-69
2022/12/31 07:44:04;;;;;;;;;;;;;;;16.52;47.86;100104.28;4978379;27;98025;-69
2022/12/31 07:46:51;;;;;;;;;;;;;;;16.56;47.82;100110.72;5000932;27;99054;-69
2022/12/31 07:49:17;;;;;;;;;;;;;;;16.60;47.67;100113.59;5001526;27;98119;-65
2022/12/31 07:51:43;;;;;;;;;;;;;;;16.63;47.89;100116.50;4984281;27;98336;-68
2022/12/31 07:54:09;;;;;;;;;;;;;;;16.68;47.64;100108.19;4965471;27;107615;-69
2022/12/31 07:56:35;;;;;;;;;;;;;;;16.75;47.73;100110.47;4976053;27;104383;-69
2022/12/31 07:59:13;;;;;;;;;;;;;;;16.81;47.60;100111.09;4991439;27;116957;-65
2022/12/31 08:01:53;;;;;;;;;;;;;;;16.85;47.64;100118.31;4978613;27;100043;-69
2022/12/31 08:04:34;;;;;;;;;;;;;;;16.90;47.57;100123.63;4993986;27;97828;-69
2022/12/31 08:07:21;;;;;;;;;;;;;;;16.98;47.57;100134.84;4996902;27;98094;-65
2022/12/31 08:10:17;;;;;;;;;;;;;;;17.07;47.46;100128.28;4993906;27;97934;-65
2022/12/31 08:12:44;;;;;;;;;;;;;;;17.15;47.37;100145.75;4976387;27;122652;-67
2022/12/31 08:15:14;;;;;;;;;;;;;;;17.21;47.48;100146.41;4960787;27;100412;-65
2022/12/31 08:17:40;;;;;;;;;;;;;;;17.21;47.59;100149.91;4960706;27;98144;-69
2022/12/31 08:20:10;;;;;;;;;;;;;;;17.22;47.70;100143.38;4981570;27;97982;-65
2022/12/31 08:22:57;;;;;;;;;;;;;;;17.25;47.53;100137.28;4981528;27;100992;-65
2022/12/31 08:25:37;;;;;;;;;;;;;;;17.29;47.44;100131.97;4995118;27;99635;-65
2022/12/31 08:28:29;;;;;;;;;;;;;;;17.35;47.67;100155.22;4960575;27;126333;-68
2022/12/31 08:31:07;;;;;;;;;;;;;;;17.36;47.44;100149.44;4996274;27;98759;-69
2022/12/31 08:33:54;;;;;;;;;;;;;;;17.38;47.50;100158.13;4975047;27;112934;-65
2022/12/31 08:36:26;;;;;;;;;;;;;;;17.43;47.39;100151.69;4980650;27;99716;-69
2022/12/31 08:38:54;;;;;;;;;;;;;;;17.50;47.30;100138.41;4979787;27;111372;-65
2022/12/31 08:41:44;;;;;;;;;;;;;;;17.60;47.46;100150.88;4980078;27;98439;-69
2022/12/31 08:44:29;;;;;;;;;;;;;;;17.75;47.18;100149.63;4960680;27;98230;-65
2022/12/31 08:47:01;;;;;;;;;;;;;;;17.86;47.08;100156.34;4987974;27;97964;-65
2022/12/31 08:49:28;;;;;;;;;;;;;;;17.98;46.96;100158.41;4995303;27;99081;-65
2022/12/31 08:51:54;;;;;;;;;;;;;;;18.10;46.98;100150.38;4965830;27;100617;-69
2022/12/31 08:54:20;;;;;;;;;;;;;;;18.19;46.93;100148.41;4979799;27;99797;-69
2022/12/31 08:56:54;;;;;;;;;;;;;;;18.26;46.87;100161.53;4962128;27;113494;-68
2022/12/31 08:59:35;;;;;;;;;;;;;;;18.33;47.03;100142.75;4994257;27;98070;-66
2022/12/31 09:02:15;;;;;;;;;;;;;;;18.49;46.94;100148.47;4963653;27;98183;-66
2022/12/31 09:05:00;;;;;;;;;;;;;;;18.63;46.70;100147.13;4995017;27;98012;-66
2022/12/31 09:07:38;;;;;;;;;;;;;;;18.82;46.47;100157.66;4994998;27;100425;-68
2022/12/31 09:10:14;;;;;;;;;;;;;;;18.98;46.72;100146.13;4992156;27;119612;-65
2022/12/31 09:13:05;;;;;;;;;;;;;;;19.23;46.33;100156.09;4992576;27;98843;-68
2022/12/31 09:15:43;;;;;;;;;;;;;;;19.55;46.13;100151.03;4995658;27;98232;-66
2022/12/31 09:18:10;;;;;;;;;;;;;;;19.76;46.08;100151.00;4961918;27;98018;-66
2022/12/31 09:20:37;;;;;;;;;;;;;;;19.88;46.09;100161.19;4976093;27;98167;-68
2022/12/31 09:23:03;;;;;;;;;;;;;;;20.04;45.89;100160.25;4978784;27;98147;-65
2022/12/31 09:25:29;;;;;;;;;;;;;;;20.14;46.04;100167.22;4958684;27;122184;-70
2022/12/31 09:28:14;;;;;;;;;;;;;;;20.16;46.22;100162.22;4966997;27;115123;-69
2022/12/31 09:31:03;;;;;;;;;;;;;;;20.22;46.22;100157.31;4992138;27;99390;-67
2022/12/31 09:33:48;;;;;;;;;;;;;;;20.25;46.23;100138.28;4978326;27;105702;-68
2022/12/31 09:36:18;;;;;;;;;;;;;;;20.27;46.32;100149.66;4995032;27;100277;-65
2022/12/31 09:38:54;;;;;;;;;;;;;;;20.25;46.54;100159.38;4961060;27;111983;-65
2022/12/31 09:41:34;;;;;;;;;;;;;;;20.25;46.52;100148.44;4974100;27;99145;-68
2022/12/31 09:44:12;;;;;;;;;;;;;;;20.21;46.49;100161.97;4993259;27;98334;-66
2022/12/31 09:46:52;;;;;;;;;;;;;;;20.26;46.55;100163.69;4994109;27;111472;-66
2022/12/31 09:49:32;;;;;;;;;;;;;;;20.29;46.50;100166.56;4991908;27;118138;-69
2022/12/31 09:52:14;;;;;;;;;;;;;;;20.29;46.55;100152.09;4978524;27;99302;-66
2022/12/31 09:54:49;;;;;;;;;;;;;;;20.30;46.62;100151.72;4979092;27;101129;-68
2022/12/31 09:57:29;;;;;;;;;;;;;;;20.32;46.65;100162.34;4976288;27;98816;-65
2022/12/31 10:00:07;;;;;;;;;;;;;;;20.32;46.60;100152.19;4981911;27;98846;-68
2022/12/31 10:03:11;;;;;;;;;;;;;;;20.34;46.71;100154.59;4964681;27;115951;-65
2022/12/31 10:05:55;;;;;;;;;;;;;;;20.34;46.67;100155.38;4976044;27;98216;-70
2022/12/31 10:08:40;;;;;;;;;;;;;;;20.35;46.76;100159.72;4962142;27;98586;-69
2022/12/31 10:11:18;;;;;;;;;;;;;;;20.35;46.71;100161.66;4995478;27;98692;-69
2022/12/31 10:14:16;;;;;;;;;;;;;;;20.34;46.87;100162.78;4960951;27;118963;-69
2022/12/31 10:17:00;;;;;;;;;;;;;;;20.33;46.89;100159.25;4961303;27;98305;-69
2022/12/31 10:19:32;;;;;;;;;;;;;;;20.33;46.87;100159.25;4960261;27;98301;-69
2022/12/31 10:22:13;;;;;;;;;;;;;;;20.33;46.68;100153.00;4977783;27;99878;-69
2022/12/31 10:25:07;;;;;;;;;;;;;;;20.32;46.91;100171.34;4977999;27;115347;-65
2022/12/31 10:27:47;;;;;;;;;;;;;;;20.34;46.89;100160.84;4960991;27;98141;-69
2022/12/31 10:30:17;;;;;;;;;;;;;;;20.36;46.81;100152.31;4978826;27;97965;-65
2022/12/31 10:33:14;;;;;;;;;;;;;;;20.35;46.76;100156.97;4961666;27;117774;-66
2022/12/31 10:36:07;;;;;;;;;;;;;;;20.35;46.80;100159.72;4978689;27;98883;-66
2022/12/31 10:38:51;;;;;;;;;;;;;;;20.35;46.81;100151.50;4967693;27;97967;-69
2022/12/31 10:41:19;;;;;;;;;;;;;;;20.34;46.93;100155.38;4975657;27;98064;-66
2022/12/31 10:44:22;;;;;;;;;;;;;;;20.34;47.00;100158.13;4996484;27;98049;-65
2022/12/31 10:47:03;;;;;;;;;;;;;;;20.33;46.88;100156.53;4994026;27;99878;-66
2022/12/31 10:49:41;;;;;;;;;;;;;;;20.32;46.95;100156.88;4998247;27;97948;-65
2022/12/31 10:52:23;;;;;;;;;;;;;;;20.29;46.99;100150.13;5008047;27;98464;-65
2022/12/31 10:54:53;;;;;;;;;;;;;;;20.30;47.00;100157.19;5000474;27;98627;-66
2022/12/31 10:57:28;;;;;;;;;;;;;;;20.30;47.09;100140.00;4977401;27;118110;-69
2022/12/31 11:00:14;;;;;;;;;;;;;;;20.32;47.03;100156.88;4998203;27;98177;-65
2022/12/31 11:02:57;;;;;;;;;;;;;;;20.33;46.89;100153.00;4981430;27;99128;-66
2022/12/31 11:06:01;;;;;;;;;;;;;;;20.35;47.04;100150.69;4979763;27;128832;-66
2022/12/31 11:08:46;;;;;;;;;;;;;;;20.33;47.12;100150.25;4993574;27;97927;-70
2022/12/31 11:11:36;;;;;;;;;;;;;;;20.34;46.98;100154.59;4991824;27;98155;-69
2022/12/31 11:14:20;;;;;;;;;;;;;;;20.30;47.09;100150.94;4981590;27;99813;-65
2022/12/31 11:17:19;;;;;;;;;;;;;;;20.27;47.15;100159.81;4998168;27;98027;-66
2022/12/31 11:19:56;;;;;;;;;;;;;;;20.21;47.15;100170.19;4997741;27;98170;-65
2022/12/31 11:22:39;;;;;;;;;;;;;;;20.16;47.23;100166.84;4981620;27;98011;-66
2022/12/31 11:25:11;;;;;;;;;;;;;;;20.09;47.26;100153.75;4966003;27;99329;-66
2022/12/31 11:28:02;;;;;;;;;;;;;;;20.05;47.30;100174.72;4998047;27;98261;-69
2022/12/31 11:30:46;;;;;;;;;;;;;;;20.00;47.28;100169.44;5001087;27;98240;-65
2022/12/31 11:33:50;;;;;;;;;;;;;;;19.97;47.33;100172.88;4976607;27;99499;-68
2022/12/31 11:36:34;;;;;;;;;;;;;;;20.00;47.25;100178.47;4980745;27;118238;-66
2022/12/31 11:39:23;;;;;;;;;;;;;;;20.04;47.27;100178.56;5014287;27;98998;-65
2022/12/31 11:41:51;;;;;;;;;;;;;;;20.07;47.31;100169.69;5015848;27;98049;-69
2022/12/31 11:44:55;;;;;;;;;;;;;;;20.10;47.17;100164.34;4962404;27;98229;-66
2022/12/31 11:47:24;;;;;;;;;;;;;;;20.17;47.08;100168.47;4983250;27;105573;-65
2022/12/31 11:50:24;;;;;;;;;;;;;;;20.21;47.11;100158.44;4993632;27;98002;-68
2022/12/31 11:52:54;;;;;;;;;;;;;;;20.24;47.06;100164.06;4997098;27;103467;-66
2022/12/31 11:55:31;;;;;;;;;;;;;;;20.28;46.91;100161.44;4997411;27;98601;-65
2022/12/31 11:58:00;;;;;;;;;;;;;;;20.29;47.03;100152.09;4977709;27;114814;-66
2022/12/31 12:00:27;;;;;;;;;;;;;;;20.29;47.10;100166.56;4964123;27;119390;-69
2022/12/31 12:02:54;;;;;;;;;;;;;;;20.29;47.12;100161.09;4963145;27;98106;-68
2022/12/31 12:05:21;;;;;;;;;;;;;;;20.30;47.24;100172.81;4981907;27;98179;-66
2022/12/31 12:07:51;;;;;;;;;;;;;;;20.29;47.19;100152.88;4997604;27;98171;-66
2022/12/31 12:10:28;;;;;;;;;;;;;;;20.29;47.06;100154.81;4982632;27;99211;-66
2022/12/31 12:12:55;;;;;;;;;;;;;;;20.30;47.19;100159.94;4996686;27;109936;-68
2022/12/31 12:15:24;;;;;;;;;;;;;;;20.32;47.08;100154.94;4980511;27;97984;-69
2022/12/31 12:17:57;;;;;;;;;;;;;;;20.33;47.11;100153.00;4963859;27;99873;-68
2022/12/31 12:20:31;;;;;;;;;;;;;;;20.33;47.14;100163.94;4962597;27;98459;-69
2022/12/31 12:22:58;;;;;;;;;;;;;;;20.34;47.25;100158.13;4960419;27;99065;-69
2022/12/31 12:25:26;;;;;;;;;;;;;;;20.36;47.12;100155.06;4964900;27;98201;-66
2022/12/31 12:27:53;;;;;;;;;;;;;;;20.38;47.18;100160.19;4962447;27;112649;-68
2022/12/31 12:30:23;;;;;;;;;;;;;;;20.37;47.19;100158.59;4979070;27;98390;-69
2022/12/31 12:32:59;;;;;;;;;;;;;;;20.37;47.20;100167.59;4980974;27;100061;-68
2022/12/31 12:35:33;;;;;;;;;;;;;;;20.36;47.25;100174.22;5000408;27;97981;-65
2022/12/31 12:38:07;;;;;;;;;;;;;;;20.35;47.27;100162.44;5000492;27;119349;-66
2022/12/31 12:40:33;;;;;;;;;;;;;;;20.36;47.19;100174.22;4963126;27;98157;-65
2022/12/31 12:43:00;;;;;;;;;;;;;;;20.35;47.31;100165.19;4998519;27;97981;-69
2022/12/31 12:45:38;;;;;;;;;;;;;;;20.34;47.17;100174.53;4981643;27;98072;-67
2022/12/31 12:48:08;;;;;;;;;;;;;;;20.31;47.24;100177.16;4965330;27;114813;-66
2022/12/31 12:50:38;;;;;;;;;;;;;;;20.32;47.17;100154.94;4981076;27;111365;-69
2022/12/31 12:53:30;;;;;;;;;;;;;;;20.28;47.31;100175.91;4946437;27;98894;-66
2022/12/31 12:56:07;;;;;;;;;;;;;;;20.22;47.36;100169.03;4981602;27;98041;-66
2022/12/31 12:58:37;;;;;;;;;;;;;;;20.13;47.56;100168.34;4950629;27;98185;-68
2022/12/31 13:01:25;;;;;;;;;;;;;;;20.07;47.63;100153.28;4982196;27;108698;-65
2022/12/31 13:04:08;;;;;;;;;;;;;;;20.01;47.69;100168.31;4986985;27;99493;-67
2022/12/31 13:06:44;;;;;;;;;;;;;;;19.96;47.69;100177.50;4963989;27;98289;-68
2022/12/31 13:09:27;;;;;;;;;;;;;;;19.94;47.56;100170.81;4946908;27;119663;-69
2022/12/31 13:12:06;;;;;;;;;;;;;;;19.98;47.67;100172.53;4948964;27;121627;-69